createdAt,value
2023-03-06T00:00:29.698Z,9.45
2023-03-06T00:02:56.692Z,10.70
2023-03-06T00:05:23.296Z,9.30
2023-03-06T00:07:50.032Z,9.32
2023-03-06T00:10:28.239Z,10.73
2023-03-06T00:12:56.588Z,10.85
2023-03-06T00:15:24.427Z,9.25
2023-03-06T00:17:50.885Z,12.87
2023-03-06T00:20:17.644Z,10.50
2023-03-06T00:22:44.207Z,11.32
2023-03-06T00:25:17.105Z,10.13
2023-03-06T00:27:44.078Z,11.52
2023-03-06T00:30:12.876Z,12.17
2023-03-06T00:32:39.636Z,10.43
2023-03-06T00:35:06.429Z,11.73
2023-03-06T00:37:32.962Z,11.18
2023-03-06T00:39:59.714Z,11.70
2023-03-06T00:42:26.185Z,12.37
2023-03-06T00:44:52.670Z,11.65
2023-03-06T00:47:19.213Z,12.30
2023-03-06T00:49:45.703Z,12.30
2023-03-06T00:52:13.211Z,10.35
2023-03-06T00:54:40.321Z,9.93
2023-03-06T00:57:07.582Z,11.75
2023-03-06T00:59:34.079Z,11.98
2023-03-06T01:02:00.527Z,11.85
2023-03-06T01:04:27.199Z,13.20
2023-03-06T01:06:53.683Z,13.00
2023-03-06T01:09:20.248Z,12.77
2023-03-06T01:11:46.972Z,13.65
2023-03-06T01:14:13.563Z,13.82
2023-03-06T01:16:40.093Z,13.27
2023-03-06T01:19:06.514Z,12.60
2023-03-06T01:21:32.987Z,10.38
2023-03-06T01:23:59.355Z,13.32
2023-03-06T01:26:25.789Z,12.15
2023-03-06T01:28:52.191Z,12.63
2023-03-06T01:31:18.662Z,14.03
2023-03-06T01:33:45.177Z,13.75
2023-03-06T01:36:12.954Z,16.23
2023-03-06T01:38:39.434Z,14.45
2023-03-06T01:41:06.350Z,11.00
2023-03-06T01:43:38.282Z,16.90
2023-03-06T01:46:28.874Z,11.57
2023-03-06T01:49:11.948Z,13.65
2023-03-06T01:51:48.935Z,13.57
2023-03-06T01:54:24.116Z,13.48
2023-03-06T01:56:56.054Z,14.30
2023-03-06T01:59:24.849Z,14.45
2023-03-06T02:01:51.376Z,13.07
2023-03-06T02:04:19.430Z,14.32
2023-03-06T02:06:47.381Z,14.50
2023-03-06T02:09:14.322Z,14.00
2023-03-06T02:11:44.048Z,13.95
2023-03-06T02:14:13.549Z,14.73
2023-03-06T02:16:41.543Z,15.27
2023-03-06T02:19:21.186Z,13.45
2023-03-06T02:21:47.712Z,14.43
2023-03-06T02:24:51.301Z,15.63
2023-03-06T02:27:19.436Z,14.10
2023-03-06T02:29:46.125Z,14.85
2023-03-06T02:32:12.608Z,18.02
2023-03-06T02:34:38.994Z,13.83
2023-03-06T02:37:08.923Z,17.10
2023-03-06T02:39:41.591Z,15.73
2023-03-06T02:42:08.200Z,13.10
2023-03-06T02:44:35.840Z,14.85
2023-03-06T02:47:02.256Z,13.90
2023-03-06T02:49:28.670Z,15.30
2023-03-06T02:51:55.082Z,14.73
2023-03-06T02:54:21.452Z,15.98
2023-03-06T02:56:47.951Z,13.65
2023-03-06T02:59:14.366Z,18.87
2023-03-06T03:01:40.844Z,14.93
2023-03-06T03:04:08.080Z,19.02
2023-03-06T03:06:34.561Z,16.42
2023-03-06T03:09:01.070Z,15.32
2023-03-06T03:11:27.502Z,16.70
2023-03-06T03:13:53.943Z,16.27
2023-03-06T03:16:20.422Z,17.23
2023-03-06T03:18:51.040Z,14.77
2023-03-06T03:21:18.148Z,16.15
2023-03-06T03:23:44.679Z,17.43
2023-03-06T03:26:15.522Z,16.80
2023-03-06T03:28:42.277Z,16.30
2023-03-06T03:31:10.274Z,15.77
2023-03-06T03:33:36.944Z,15.43
2023-03-06T03:36:05.776Z,15.30
2023-03-06T03:38:32.982Z,15.98
2023-03-06T03:41:01.477Z,15.60
2023-03-06T03:43:28.099Z,13.73
2023-03-06T03:45:54.632Z,15.73
2023-03-06T03:48:21.308Z,14.20
2023-03-06T03:50:47.837Z,13.98
2023-03-06T03:53:14.288Z,13.02
2023-03-06T03:55:40.652Z,15.82
2023-03-06T03:58:07.069Z,12.55
2023-03-06T04:00:33.551Z,15.10
2023-03-06T04:03:00.019Z,13.48
2023-03-06T04:05:26.390Z,12.00
2023-03-06T04:07:52.842Z,12.88
2023-03-06T04:10:19.341Z,12.27
2023-03-06T04:12:45.762Z,13.13
2023-03-06T04:15:12.315Z,13.48
2023-03-06T04:17:38.747Z,12.30
2023-03-06T04:20:05.597Z,17.73
2023-03-06T04:22:32.061Z,13.07
2023-03-06T04:24:58.526Z,12.23
2023-03-06T04:27:25.036Z,13.98
2023-03-06T04:29:51.517Z,15.25
2023-03-06T04:32:19.724Z,16.63
2023-03-06T04:34:47.704Z,13.02
2023-03-06T04:37:24.098Z,15.40
2023-03-06T04:39:50.942Z,14.45
2023-03-06T04:42:17.828Z,15.52
2023-03-06T04:44:45.072Z,15.18
2023-03-06T04:47:12.158Z,14.82
2023-03-06T04:49:38.660Z,14.23
2023-03-06T04:52:05.460Z,14.00
2023-03-06T04:54:31.877Z,14.00
2023-03-06T04:56:58.308Z,13.30
2023-03-06T04:59:24.915Z,13.20
2023-03-06T05:01:51.387Z,15.00
2023-03-06T05:04:17.848Z,13.98
2023-03-06T05:06:44.268Z,14.20
2023-03-06T05:09:10.634Z,15.63
2023-03-06T05:11:37.049Z,13.88
2023-03-06T05:14:03.505Z,15.90
2023-03-06T05:16:30.078Z,18.55
2023-03-06T05:18:56.650Z,15.60
2023-03-06T05:21:23.113Z,15.20
2023-03-06T05:23:49.571Z,15.57
2023-03-06T05:26:16.250Z,14.23
2023-03-06T05:28:42.827Z,14.68
2023-03-06T05:31:09.510Z,14.02
2023-03-06T05:33:37.008Z,14.43
2023-03-06T05:36:03.711Z,14.50
2023-03-06T05:38:30.152Z,14.93
2023-03-06T05:40:56.621Z,14.02
2023-03-06T05:43:23.274Z,13.38
2023-03-06T05:45:50.569Z,14.90
2023-03-06T05:48:17.123Z,14.57
2023-03-06T05:50:43.613Z,14.40
2023-03-06T05:53:10.247Z,15.55
2023-03-06T05:55:36.726Z,15.45
2023-03-06T05:58:03.384Z,16.40
2023-03-06T06:00:30.026Z,16.40
2023-03-06T06:02:56.434Z,18.17
2023-03-06T06:05:23.110Z,15.45
2023-03-06T06:07:49.552Z,16.85
2023-03-06T06:10:16.114Z,17.02
2023-03-06T06:12:42.538Z,17.00
2023-03-06T06:15:09.439Z,19.10
2023-03-06T06:17:35.879Z,21.70
2023-03-06T06:20:02.364Z,22.85
2023-03-06T06:22:28.939Z,19.95
2023-03-06T06:24:55.423Z,18.83
2023-03-06T06:27:21.825Z,17.47
2023-03-06T06:29:51.684Z,17.38
2023-03-06T06:32:18.190Z,18.73
2023-03-06T06:34:44.640Z,18.75
2023-03-06T06:37:11.085Z,19.83
2023-03-06T06:39:37.484Z,20.67
2023-03-06T06:42:26.562Z,19.13
2023-03-06T06:44:51.434Z,22.73
2023-03-06T06:47:23.063Z,18.23
2023-03-06T06:49:55.417Z,20.00
2023-03-06T06:52:23.136Z,22.73
2023-03-06T06:54:49.600Z,21.10
2023-03-06T06:57:16.466Z,20.85
2023-03-06T06:59:42.959Z,20.50
2023-03-06T07:02:14.325Z,19.77
2023-03-06T07:04:52.225Z,20.90
2023-03-06T07:07:27.313Z,20.45
2023-03-06T07:09:54.726Z,17.85
2023-03-06T07:12:21.149Z,18.80
2023-03-06T07:14:48.373Z,19.02
2023-03-06T07:17:14.816Z,23.53
2023-03-06T07:19:41.355Z,29.20
2023-03-06T07:22:07.784Z,24.25
2023-03-06T07:24:34.529Z,21.27
2023-03-06T07:27:00.930Z,30.42
2023-03-06T07:29:27.466Z,19.53
2023-03-06T07:31:54.022Z,30.73
2023-03-06T07:34:20.442Z,23.10
2023-03-06T07:36:47.042Z,17.15
2023-03-06T07:39:13.488Z,17.85
2023-03-06T07:41:39.910Z,16.47
2023-03-06T07:44:06.450Z,18.33
2023-03-06T07:46:32.975Z,15.25
2023-03-06T07:48:59.511Z,18.10
2023-03-06T07:51:26.090Z,19.88
2023-03-06T07:53:52.504Z,17.70
2023-03-06T07:56:19.054Z,16.67
2023-03-06T07:58:46.781Z,21.88
2023-03-06T08:01:16.592Z,21.75
2023-03-06T08:03:43.312Z,22.00
2023-03-06T08:06:12.565Z,23.70
2023-03-06T08:08:40.626Z,22.63
2023-03-06T08:11:08.982Z,18.83
2023-03-06T08:13:35.904Z,17.60
2023-03-06T08:16:03.656Z,17.67
2023-03-06T08:18:30.226Z,16.90
2023-03-06T08:21:09.829Z,17.52
2023-03-06T08:23:36.951Z,18.00
2023-03-06T08:26:10.429Z,17.08
2023-03-06T08:28:37.033Z,18.85
2023-03-06T08:31:11.307Z,33.13
2023-03-06T08:33:38.615Z,29.95
2023-03-06T08:36:05.609Z,20.15
2023-03-06T08:38:32.111Z,16.85
2023-03-06T08:40:58.558Z,18.95
2023-03-06T08:43:25.247Z,17.50
2023-03-06T08:45:53.361Z,18.23
2023-03-06T08:48:19.872Z,20.30
2023-03-06T08:50:46.475Z,18.55
2023-03-06T08:53:12.912Z,17.67
2023-03-06T08:55:39.470Z,18.37
2023-03-06T08:58:06.012Z,17.02
2023-03-06T09:00:33.512Z,19.40
2023-03-06T09:03:00.572Z,18.90
2023-03-06T09:05:27.346Z,17.75
2023-03-06T09:07:53.934Z,18.60
2023-03-06T09:10:22.916Z,17.52
2023-03-06T09:12:52.462Z,16.05
2023-03-06T09:15:21.571Z,17.92
2023-03-06T09:17:48.263Z,18.00
2023-03-06T09:20:15.341Z,18.23
2023-03-06T09:22:45.760Z,18.02
2023-03-06T09:25:13.748Z,19.85
2023-03-06T09:27:40.962Z,19.13
2023-03-06T09:30:08.258Z,17.55
2023-03-06T09:32:34.682Z,20.50
2023-03-06T09:35:01.351Z,17.65
2023-03-06T09:37:27.811Z,19.58
2023-03-06T09:39:54.324Z,17.73
2023-03-06T09:42:23.450Z,18.60
2023-03-06T09:44:59.976Z,16.20
2023-03-06T09:47:29.497Z,18.67
2023-03-06T09:50:44.505Z,17.10
2023-03-06T09:53:32.387Z,19.10
2023-03-06T09:56:20.458Z,17.30
2023-03-06T09:58:55.982Z,18.20
2023-03-06T10:01:34.875Z,21.50
2023-03-06T10:04:19.271Z,17.85
2023-03-06T10:06:49.091Z,18.65
2023-03-06T10:09:24.376Z,16.08
2023-03-06T10:12:15.824Z,18.40
2023-03-06T10:14:48.404Z,19.38
2023-03-06T10:17:22.137Z,16.10
2023-03-06T10:19:49.291Z,17.15
2023-03-06T10:22:38.690Z,20.15
2023-03-06T10:25:27.989Z,17.30
2023-03-06T10:28:18.626Z,15.77
2023-03-06T10:30:56.949Z,21.20
2023-03-06T10:33:44.396Z,16.60
2023-03-06T10:36:16.217Z,17.65
2023-03-06T10:38:44.435Z,17.40
2023-03-06T10:41:10.809Z,18.15
2023-03-06T10:43:43.373Z,16.30
2023-03-06T10:46:12.424Z,22.73
2023-03-06T10:48:42.006Z,20.15
2023-03-06T10:51:21.627Z,18.60
2023-03-06T10:53:56.052Z,17.88
2023-03-06T10:56:30.294Z,23.55
2023-03-06T10:59:25.380Z,16.52
2023-03-06T11:01:58.029Z,20.45
2023-03-06T11:04:33.737Z,19.53
2023-03-06T11:07:28.408Z,19.08
2023-03-06T11:09:57.885Z,19.27
2023-03-06T11:12:35.052Z,21.23
2023-03-06T11:15:17.677Z,19.98
2023-03-06T11:17:51.760Z,19.00
2023-03-06T11:20:44.684Z,23.00
2023-03-06T11:23:38.287Z,18.55
2023-03-06T11:26:04.829Z,19.60
2023-03-06T11:28:37.062Z,16.70
2023-03-06T11:31:13.702Z,17.47
2023-03-06T11:33:49.744Z,19.40
2023-03-06T11:36:25.217Z,17.48
2023-03-06T11:38:53.634Z,16.50
2023-03-06T11:41:31.141Z,16.90
2023-03-06T11:44:15.736Z,25.70
2023-03-06T19:57:34.291Z,21.93
2023-03-06T20:00:01.787Z,21.15
2023-03-06T20:02:28.373Z,24.02
2023-03-06T20:04:55.171Z,26.77
2023-03-06T20:07:22.204Z,19.00
2023-03-06T20:09:48.625Z,20.73
2023-03-06T20:12:15.989Z,19.92
2023-03-06T20:14:43.077Z,22.75
2023-03-06T20:17:09.604Z,23.17
2023-03-06T20:19:36.505Z,22.42
2023-03-06T20:22:03.341Z,19.73
2023-03-06T20:24:29.788Z,27.52
2023-03-06T20:26:57.610Z,29.40
2023-03-06T20:29:26.646Z,24.30
2023-03-06T20:31:56.106Z,23.95
2023-03-06T20:34:26.387Z,29.60
2023-03-06T20:36:53.224Z,27.63
2023-03-06T20:39:25.769Z,27.05
2023-03-06T20:41:52.322Z,27.60
2023-03-06T20:44:23.198Z,22.13
2023-03-06T20:46:52.042Z,24.17
2023-03-06T20:49:19.211Z,22.65
2023-03-06T20:51:49.972Z,23.48
2023-03-06T20:54:20.056Z,26.10
2023-03-06T20:56:48.975Z,24.50
2023-03-06T20:59:15.988Z,19.77
2023-03-06T21:01:44.861Z,23.88
2023-03-06T21:04:13.919Z,52.33
2023-03-06T21:06:42.489Z,48.53
2023-03-06T21:09:08.943Z,28.27
2023-03-06T21:11:35.574Z,30.50
2023-03-06T21:14:02.220Z,33.78
2023-03-06T21:16:30.438Z,39.70
2023-03-06T21:18:59.452Z,31.38
2023-03-06T21:21:32.030Z,37.88
2023-03-06T21:23:59.478Z,33.90
2023-03-06T21:26:28.872Z,45.88
2023-03-06T21:28:58.885Z,37.40
2023-03-06T21:31:29.521Z,34.63
2023-03-06T21:33:58.131Z,34.42
2023-03-06T21:36:25.164Z,44.43
2023-03-06T21:38:52.612Z,74.93
2023-03-06T21:41:24.787Z,30.58
2023-03-06T21:43:59.258Z,27.75
2023-03-06T21:46:29.944Z,25.60
2023-03-06T21:48:59.795Z,27.40
2023-03-06T21:51:26.919Z,24.83
2023-03-06T21:53:54.411Z,25.83
2023-03-06T21:56:28.307Z,23.88
2023-03-06T21:58:57.953Z,28.33
2023-03-06T22:01:27.482Z,24.27
2023-03-06T22:03:54.263Z,23.45
2023-03-06T22:06:24.204Z,23.85
2023-03-06T22:08:52.502Z,23.55
2023-03-06T22:11:20.840Z,27.92
2023-03-06T22:13:49.259Z,24.63
2023-03-06T22:16:16.838Z,25.35
2023-03-06T22:18:51.269Z,25.00
2023-03-06T22:21:20.326Z,21.50
2023-03-06T22:23:55.107Z,25.17
2023-03-06T22:26:21.660Z,24.70
2023-03-06T22:28:48.276Z,22.50
2023-03-06T22:31:29.008Z,24.40
2023-03-06T22:33:57.663Z,26.33
2023-03-06T22:36:25.228Z,19.98
2023-03-06T22:38:57.720Z,19.10
2023-03-06T22:41:28.740Z,19.15
2023-03-06T22:43:59.218Z,22.00
2023-03-06T22:46:26.522Z,22.95
2023-03-06T22:48:54.239Z,23.83
2023-03-06T22:51:21.145Z,21.77
2023-03-06T22:53:48.407Z,21.27
2023-03-06T22:56:20.280Z,22.30
2023-03-06T22:58:47.584Z,22.50
2023-03-06T23:01:23.190Z,19.95
2023-03-06T23:03:51.548Z,24.17
2023-03-06T23:06:24.012Z,23.83
2023-03-06T23:09:20.501Z,20.10
2023-03-06T23:11:49.352Z,23.02
2023-03-06T23:14:17.387Z,22.27
2023-03-06T23:16:44.440Z,25.20
2023-03-06T23:19:11.321Z,22.85
2023-03-06T23:21:37.856Z,23.27
2023-03-06T23:24:05.425Z,26.08
2023-03-06T23:26:34.246Z,21.77
2023-03-06T23:29:04.345Z,24.97
2023-03-06T23:31:31.563Z,22.33
2023-03-06T23:33:59.914Z,28.60
2023-03-06T23:36:27.128Z,26.90
2023-03-06T23:38:53.611Z,24.75
2023-03-06T23:41:21.688Z,23.80
2023-03-06T23:43:48.736Z,26.02
2023-03-06T23:46:15.623Z,22.83
2023-03-06T23:48:43.387Z,26.35
2023-03-06T23:51:15.537Z,25.27
2023-03-06T23:53:43.407Z,25.43
2023-03-06T23:56:09.917Z,26.67
2023-03-06T23:58:36.965Z,27.08
